createdAt,value
2022-08-30T00:00:32.227Z,10.30
2022-08-30T00:03:02.247Z,10.03
2022-08-30T00:05:30.551Z,6.57
2022-08-30T00:07:58.627Z,5.60
2022-08-30T00:10:27.104Z,6.07
2022-08-30T00:12:54.659Z,5.93
2022-08-30T00:15:22.634Z,6.30
2022-08-30T00:17:50.230Z,8.10
2022-08-30T00:20:21.089Z,6.50
2022-08-30T00:22:49.161Z,6.20
2022-08-30T00:25:17.211Z,6.57
2022-08-30T00:27:45.226Z,6.00
2022-08-30T00:30:14.966Z,6.40
2022-08-30T00:32:43.085Z,6.13
2022-08-30T00:35:11.939Z,6.30
2022-08-30T00:37:41.295Z,6.20
2022-08-30T00:40:12.062Z,6.50
2022-08-30T00:42:40.211Z,15.63
2022-08-30T00:45:12.963Z,8.63
2022-08-30T00:47:40.597Z,9.07
2022-08-30T00:50:10.141Z,10.50
2022-08-30T00:52:39.130Z,11.63
2022-08-30T00:55:08.556Z,8.70
2022-08-30T00:57:36.750Z,8.90
2022-08-30T01:00:06.676Z,7.93
2022-08-30T01:02:34.597Z,7.50
2022-08-30T01:05:03.183Z,9.43
2022-08-30T01:07:31.223Z,7.90
2022-08-30T01:09:59.101Z,7.93
2022-08-30T01:12:28.223Z,8.90
2022-08-30T01:14:56.172Z,7.60
2022-08-30T01:17:23.994Z,7.00
2022-08-30T01:19:55.076Z,7.00
2022-08-30T01:22:27.985Z,7.17
2022-08-30T01:24:58.724Z,6.47
2022-08-30T01:27:27.955Z,6.90
2022-08-30T01:29:55.803Z,7.80
2022-08-30T01:32:28.948Z,7.30
2022-08-30T01:34:58.486Z,6.83
2022-08-30T01:37:27.819Z,6.30
2022-08-30T01:39:57.038Z,7.00
2022-08-30T01:42:25.079Z,7.67
2022-08-30T01:44:55.741Z,6.50
2022-08-30T01:47:24.067Z,7.00
2022-08-30T01:49:52.289Z,7.60
2022-08-30T01:52:19.940Z,8.00
2022-08-30T01:54:47.865Z,7.67
2022-08-30T01:57:19.111Z,7.80
2022-08-30T01:59:47.804Z,7.87
2022-08-30T02:02:16.257Z,8.10
2022-08-30T02:04:44.889Z,8.00
2022-08-30T02:07:12.494Z,8.27
2022-08-30T02:09:40.314Z,8.30
2022-08-30T02:12:08.731Z,8.43
2022-08-30T02:14:38.151Z,7.97
2022-08-30T02:17:06.620Z,7.90
2022-08-30T02:19:34.402Z,9.20
2022-08-30T02:22:02.036Z,8.30
2022-08-30T02:24:29.729Z,9.00
2022-08-30T02:26:58.069Z,9.00
2022-08-30T02:29:25.947Z,9.70
2022-08-30T02:31:55.116Z,10.13
2022-08-30T02:34:22.830Z,10.17
2022-08-30T02:36:50.525Z,10.80
2022-08-30T02:39:18.161Z,9.50
2022-08-30T02:41:46.007Z,10.87
2022-08-30T02:44:13.617Z,9.77
2022-08-30T02:46:41.290Z,9.53
2022-08-30T02:49:32.557Z,9.50
2022-08-30T02:51:58.748Z,9.07
2022-08-30T02:54:26.787Z,10.20
2022-08-30T02:56:54.649Z,10.17
2022-08-30T02:59:33.264Z,9.60
2022-08-30T03:02:01.125Z,10.13
2022-08-30T03:04:30.097Z,10.83
2022-08-30T03:07:17.166Z,12.73
2022-08-30T03:09:45.291Z,10.93
2022-08-30T03:12:13.653Z,12.30
2022-08-30T03:14:43.294Z,12.40
2022-08-30T03:17:13.807Z,11.90
2022-08-30T03:19:46.206Z,11.40
2022-08-30T03:22:14.081Z,11.67
2022-08-30T03:24:41.662Z,11.30
2022-08-30T03:27:29.683Z,10.67
2022-08-30T03:29:57.458Z,12.13
2022-08-30T03:32:25.058Z,10.67
2022-08-30T03:34:54.463Z,11.30
2022-08-30T03:37:26.874Z,10.67
2022-08-30T03:39:55.479Z,11.33
2022-08-30T03:42:23.162Z,11.07
2022-08-30T03:44:53.005Z,10.73
2022-08-30T03:47:21.101Z,10.83
2022-08-30T03:49:48.738Z,11.47
2022-08-30T03:52:18.103Z,10.80
2022-08-30T03:54:46.187Z,10.90
2022-08-30T03:57:20.073Z,11.37
2022-08-30T03:59:50.107Z,11.27
2022-08-30T04:02:17.680Z,10.73
2022-08-30T04:04:46.138Z,10.47
2022-08-30T04:07:13.828Z,11.70
2022-08-30T04:09:42.797Z,10.60
2022-08-30T04:12:10.420Z,10.40
2022-08-30T04:14:38.718Z,11.43
2022-08-30T04:17:06.338Z,10.30
2022-08-30T04:19:34.202Z,9.87
2022-08-30T04:22:03.020Z,10.53
2022-08-30T04:24:30.614Z,10.40
2022-08-30T04:26:59.687Z,10.40
2022-08-30T04:29:27.566Z,10.50
2022-08-30T04:31:55.217Z,10.40
2022-08-30T04:34:23.101Z,10.50
2022-08-30T04:36:51.167Z,10.20
2022-08-30T04:39:19.147Z,10.73
2022-08-30T04:41:46.701Z,10.10
2022-08-30T04:44:19.309Z,10.17
2022-08-30T04:46:47.500Z,10.33
2022-08-30T04:49:15.147Z,11.37
2022-08-30T04:51:43.135Z,10.43
2022-08-30T04:54:10.843Z,10.00
2022-08-30T04:56:38.644Z,10.23
2022-08-30T04:59:06.451Z,10.00
2022-08-30T05:01:45.390Z,9.70
2022-08-30T05:04:14.152Z,9.60
2022-08-30T05:06:41.642Z,10.00
2022-08-30T05:09:09.666Z,9.90
2022-08-30T05:11:37.745Z,10.30
2022-08-30T05:14:05.846Z,9.33
2022-08-30T05:16:34.891Z,10.00
2022-08-30T05:19:03.053Z,11.10
2022-08-30T05:21:30.643Z,10.60
2022-08-30T05:23:59.774Z,10.47
2022-08-30T05:26:28.858Z,10.60
2022-08-30T05:29:00.356Z,10.50
2022-08-30T05:31:28.996Z,10.40
2022-08-30T05:33:58.101Z,10.30
2022-08-30T05:36:26.906Z,11.80
2022-08-30T05:38:54.930Z,10.33
2022-08-30T05:41:23.533Z,10.03
2022-08-30T05:43:55.208Z,10.70
2022-08-30T05:46:22.947Z,10.13
2022-08-30T05:48:51.660Z,10.10
2022-08-30T05:51:22.119Z,10.80
2022-08-30T05:53:50.504Z,10.97
2022-08-30T05:56:19.180Z,9.90
2022-08-30T05:58:47.327Z,9.77
2022-08-30T06:01:21.796Z,10.10
2022-08-30T06:03:49.821Z,10.30
2022-08-30T06:06:17.436Z,9.10
2022-08-30T06:08:48.417Z,10.73
2022-08-30T06:11:17.344Z,10.17
2022-08-30T06:13:44.931Z,9.40
2022-08-30T06:16:12.940Z,10.30
2022-08-30T06:18:41.206Z,9.07
2022-08-30T06:21:13.351Z,9.83
2022-08-30T06:23:42.976Z,9.57
2022-08-30T06:26:12.022Z,9.77
2022-08-30T06:28:40.443Z,8.60
2022-08-30T06:31:08.435Z,9.20
2022-08-30T06:33:36.214Z,8.57
2022-08-30T06:36:06.030Z,9.20
2022-08-30T06:38:33.835Z,8.50
2022-08-30T06:41:01.553Z,9.67
2022-08-30T06:43:30.496Z,9.43
2022-08-30T06:46:02.487Z,8.70
2022-08-30T06:48:30.127Z,9.07
2022-08-30T06:50:57.773Z,9.27
2022-08-30T06:53:26.130Z,9.50
2022-08-30T06:55:58.360Z,9.77
2022-08-30T06:58:26.444Z,9.60
2022-08-30T07:00:55.394Z,9.40
2022-08-30T07:03:23.269Z,9.20
2022-08-30T07:05:51.083Z,9.33
2022-08-30T07:08:19.043Z,12.57
2022-08-30T07:10:46.773Z,10.87
2022-08-30T07:13:14.644Z,11.50
2022-08-30T07:15:42.901Z,9.00
2022-08-30T07:18:30.264Z,9.80
2022-08-30T07:20:58.326Z,10.30
2022-08-30T07:23:25.979Z,9.70
2022-08-30T07:25:54.139Z,8.67
2022-08-30T07:28:21.720Z,8.73
2022-08-30T07:30:49.279Z,12.43
2022-08-30T07:33:18.649Z,10.40
2022-08-30T07:35:46.573Z,9.87
2022-08-30T07:38:14.318Z,8.97
2022-08-30T07:40:41.997Z,9.60
2022-08-30T07:43:10.034Z,9.00
2022-08-30T07:45:37.832Z,9.13
2022-08-30T07:48:05.687Z,8.07
2022-08-30T07:50:34.902Z,8.20
2022-08-30T07:53:03.409Z,8.33
2022-08-30T07:55:32.463Z,8.70
2022-08-30T08:00:33.289Z,7.57
2022-08-30T08:03:06.228Z,7.40
2022-08-30T08:05:38.398Z,7.77
2022-08-30T08:08:06.222Z,7.07
2022-08-30T08:10:34.196Z,7.03
2022-08-30T08:13:02.860Z,8.17
2022-08-30T08:15:31.357Z,8.00
2022-08-30T08:17:58.964Z,8.00
2022-08-30T08:20:27.115Z,8.20
2022-08-30T08:22:56.519Z,7.03
2022-08-30T08:25:24.097Z,7.43
2022-08-30T08:27:52.718Z,7.43
2022-08-30T08:30:21.534Z,6.90
2022-08-30T08:32:49.382Z,6.20
2022-08-30T08:35:17.506Z,6.37
2022-08-30T08:37:47.989Z,7.47
2022-08-30T08:40:19.075Z,5.97
2022-08-30T08:42:52.402Z,5.87
2022-08-30T08:45:23.341Z,5.63
2022-08-30T08:47:56.957Z,4.70
2022-08-30T08:50:24.865Z,4.80
2022-08-30T08:53:24.989Z,4.10
2022-08-30T08:55:59.943Z,3.27
2022-08-30T08:58:29.478Z,5.03
2022-08-30T09:00:58.069Z,3.77
2022-08-30T09:03:27.274Z,3.93
2022-08-30T09:05:55.779Z,4.77
2022-08-30T09:08:24.260Z,5.83
2022-08-30T09:10:57.023Z,9.03
2022-08-30T09:13:26.216Z,8.20
2022-08-30T09:15:57.633Z,4.50
2022-08-30T09:18:45.746Z,9.33
2022-08-30T09:21:14.450Z,5.27
2022-08-30T09:23:48.743Z,7.30
2022-08-30T09:26:28.359Z,10.40
2022-08-30T09:28:59.142Z,6.30
2022-08-30T09:31:29.448Z,3.20
2022-08-30T09:33:57.928Z,4.67
2022-08-30T09:36:27.655Z,4.20
2022-08-30T09:39:00.319Z,4.70
2022-08-30T09:41:29.549Z,3.20
2022-08-30T09:44:06.721Z,2.13
2022-08-30T09:46:34.486Z,2.47
2022-08-30T09:49:02.197Z,2.67
2022-08-30T09:51:39.307Z,2.47
2022-08-30T09:54:18.497Z,1.73
2022-08-30T09:56:51.997Z,2.13
2022-08-30T09:59:27.838Z,2.10
2022-08-30T10:02:02.465Z,2.70
2022-08-30T10:04:35.922Z,2.47
2022-08-30T10:07:08.124Z,2.17
2022-08-30T10:09:38.566Z,3.17
2022-08-30T10:12:11.400Z,3.70
2022-08-30T10:14:51.732Z,2.87
2022-08-30T10:17:27.032Z,3.03
2022-08-30T10:20:03.220Z,2.23
2022-08-30T10:22:33.283Z,2.10
2022-08-30T10:25:03.642Z,2.83
2022-08-30T10:27:34.997Z,3.97
2022-08-30T10:30:06.928Z,3.33
2022-08-30T10:32:38.032Z,1.60
2022-08-30T10:35:08.735Z,2.60
2022-08-30T10:37:39.344Z,2.70
2022-08-30T10:40:25.772Z,2.60
2022-08-30T10:42:55.051Z,3.60
2022-08-30T10:45:24.532Z,3.70
2022-08-30T10:47:55.837Z,4.17
2022-08-30T10:50:25.283Z,2.80
2022-08-30T10:52:55.456Z,2.83
2022-08-30T10:55:25.423Z,3.17
2022-08-30T10:57:53.638Z,3.33
2022-08-30T11:00:28.052Z,3.57
2022-08-30T11:03:06.874Z,6.67
2022-08-30T11:05:42.411Z,6.37
2022-08-30T11:08:20.522Z,3.60
2022-08-30T11:10:55.173Z,3.70
2022-08-30T11:13:24.781Z,4.13
2022-08-30T11:15:56.271Z,2.50
2022-08-30T11:18:25.910Z,6.47
2022-08-30T11:20:55.206Z,3.50
2022-08-30T11:23:27.778Z,1.77
2022-08-30T11:26:01.993Z,1.50
2022-08-30T11:28:49.576Z,2.20
2022-08-30T11:31:29.772Z,1.97
2022-08-30T11:34:00.940Z,2.27
2022-08-30T11:36:47.350Z,1.93
2022-08-30T11:39:35.069Z,2.13
2022-08-30T11:42:12.386Z,1.50
2022-08-30T11:44:41.946Z,1.90
2022-08-30T11:47:25.242Z,1.40
2022-08-30T11:49:59.566Z,1.33
2022-08-30T11:52:32.374Z,1.40
2022-08-30T11:55:08.977Z,1.70
2022-08-30T11:57:43.285Z,1.70
2022-08-30T12:00:12.399Z,3.30
2022-08-30T12:02:48.443Z,3.40
2022-08-30T12:05:38.146Z,2.20
2022-08-30T12:08:08.003Z,2.30
2022-08-30T12:10:38.275Z,2.07
2022-08-30T12:13:06.437Z,9.33
2022-08-30T12:15:49.045Z,2.27
2022-08-30T12:18:31.250Z,2.90
2022-08-30T12:21:05.023Z,1.47
2022-08-30T12:23:44.589Z,2.00
2022-08-30T12:26:16.131Z,3.10
2022-08-30T12:28:46.221Z,2.70
2022-08-30T12:31:16.364Z,2.33
2022-08-30T12:33:45.507Z,2.77
2022-08-30T12:36:15.091Z,6.80
2022-08-30T12:38:45.140Z,3.73
2022-08-30T12:41:18.756Z,5.20
2022-08-30T12:43:50.450Z,3.53
2022-08-30T12:46:18.711Z,3.27
2022-08-30T12:48:48.790Z,3.00
2022-08-30T12:51:27.919Z,1.73
2022-08-30T12:54:03.932Z,28.93
2022-08-30T12:56:50.297Z,12.13
2022-08-30T12:59:37.484Z,4.70
2022-08-30T13:02:21.135Z,13.23
2022-08-30T13:04:49.407Z,2.60
2022-08-30T13:07:31.071Z,4.60
2022-08-30T13:10:11.942Z,2.83
2022-08-30T13:12:40.991Z,2.33
2022-08-30T13:15:12.920Z,1.97
2022-08-30T13:17:41.045Z,2.90
2022-08-30T13:20:21.304Z,2.23
2022-08-30T13:23:07.536Z,2.33
2022-08-30T13:25:38.443Z,3.10
2022-08-30T13:28:07.814Z,2.90
2022-08-30T13:30:36.296Z,2.57
2022-08-30T13:33:03.922Z,4.43
2022-08-30T13:35:32.584Z,4.20
2022-08-30T13:38:02.199Z,3.33
2022-08-30T13:40:30.361Z,3.10
2022-08-30T13:42:59.569Z,3.37
2022-08-30T13:45:43.184Z,3.03
2022-08-30T13:48:11.916Z,2.73
2022-08-30T13:50:39.567Z,2.90
2022-08-30T13:53:08.985Z,3.30
2022-08-30T13:55:37.139Z,2.97
2022-08-30T13:58:06.225Z,3.10
2022-08-30T14:00:37.515Z,3.30
2022-08-30T14:03:06.019Z,2.80
2022-08-30T14:06:00.592Z,4.33
2022-08-30T14:11:13.226Z,4.03
2022-08-30T14:16:31.838Z,3.53
2022-08-30T14:19:00.449Z,3.27
2022-08-30T14:21:28.420Z,3.30
2022-08-30T14:23:57.033Z,2.97
2022-08-30T14:26:32.285Z,3.30
2022-08-30T14:29:26.254Z,3.83
2022-08-30T14:31:56.760Z,3.50
2022-08-30T14:34:28.015Z,5.03
2022-08-30T14:36:56.709Z,3.70
2022-08-30T14:39:26.012Z,4.00
2022-08-30T14:41:55.543Z,4.70
2022-08-30T14:44:25.502Z,4.60
2022-08-30T14:46:53.477Z,4.23
2022-08-30T14:49:21.291Z,3.80
2022-08-30T14:51:49.649Z,4.03
2022-08-30T14:54:17.982Z,5.00
2022-08-30T14:56:45.719Z,4.70
2022-08-30T14:59:13.639Z,6.20
2022-08-30T15:01:42.954Z,5.50
2022-08-30T15:04:11.608Z,5.10
2022-08-30T15:06:40.446Z,4.50
2022-08-30T15:09:10.158Z,4.63
2022-08-30T15:11:39.002Z,4.60
2022-08-30T15:14:07.357Z,4.37
2022-08-30T15:16:36.588Z,4.80
2022-08-30T15:19:07.170Z,4.57
2022-08-30T15:21:37.373Z,4.73
2022-08-30T15:24:08.955Z,5.70
2022-08-30T15:26:40.788Z,5.43
2022-08-30T15:29:09.022Z,4.63
2022-08-30T15:31:37.009Z,5.63
2022-08-30T15:34:07.335Z,6.70
2022-08-30T15:36:37.367Z,5.50
2022-08-30T15:39:06.602Z,5.10
2022-08-30T15:41:35.328Z,4.57
2022-08-30T15:44:05.921Z,4.37
2022-08-30T15:46:35.446Z,5.40
2022-08-30T15:49:06.034Z,5.53
2022-08-30T15:51:38.825Z,4.23
2022-08-30T15:54:11.590Z,3.90
2022-08-30T15:56:40.186Z,4.00
2022-08-30T15:59:09.857Z,4.13
2022-08-30T16:01:38.616Z,3.80
2022-08-30T16:04:06.547Z,4.03
2022-08-30T16:06:37.447Z,3.67
2022-08-30T16:09:06.658Z,3.57
2022-08-30T16:11:34.669Z,3.77
2022-08-30T16:14:02.547Z,4.10
2022-08-30T16:16:31.404Z,4.47
2022-08-30T16:18:59.114Z,5.00
2022-08-30T16:21:27.804Z,4.10
2022-08-30T16:23:58.205Z,5.43
2022-08-30T16:26:26.477Z,5.90
2022-08-30T16:28:54.095Z,4.77
2022-08-30T16:31:23.036Z,4.50
2022-08-30T16:33:52.712Z,4.10
2022-08-30T16:36:21.113Z,4.43
2022-08-30T16:38:49.179Z,4.23
2022-08-30T16:41:23.325Z,4.03
2022-08-30T16:43:53.530Z,5.90
2022-08-30T16:46:27.691Z,8.60
2022-08-30T16:48:57.006Z,5.10
2022-08-30T16:51:25.916Z,5.17
2022-08-30T16:53:55.209Z,6.10
2022-08-30T16:56:26.058Z,7.97
2022-08-30T17:01:44.781Z,4.10
2022-08-30T17:07:01.614Z,7.03
2022-08-30T17:09:30.501Z,4.07
2022-08-30T17:11:59.994Z,3.10
2022-08-30T17:14:29.082Z,4.60
2022-08-30T17:16:57.408Z,5.10
2022-08-30T17:19:27.251Z,5.03
2022-08-30T17:21:58.538Z,5.47
2022-08-30T17:24:26.391Z,5.47
2022-08-30T17:26:54.422Z,4.87
2022-08-30T17:29:23.900Z,3.77
2022-08-30T17:31:51.767Z,4.40
2022-08-30T17:34:21.117Z,3.90
2022-08-30T17:36:50.692Z,3.77
2022-08-30T17:39:19.421Z,3.73
2022-08-30T17:41:51.532Z,4.27
2022-08-30T17:44:20.185Z,3.93
2022-08-30T17:46:49.425Z,4.33
2022-08-30T17:49:17.992Z,3.73
2022-08-30T17:54:34.190Z,4.53
2022-08-30T17:57:10.656Z,7.40
2022-08-30T17:59:39.602Z,4.10
2022-08-30T18:02:11.097Z,4.93
2022-08-30T18:04:41.774Z,4.20
2022-08-30T18:07:12.011Z,4.60
2022-08-30T18:09:40.640Z,4.90
2022-08-30T18:12:08.549Z,6.43
2022-08-30T18:14:39.332Z,5.53
2022-08-30T18:17:09.436Z,5.17
2022-08-30T18:19:37.117Z,6.27
2022-08-30T18:22:14.663Z,5.30
2022-08-30T18:24:42.173Z,5.93
2022-08-30T18:27:09.984Z,5.93
2022-08-30T18:29:38.287Z,7.80
2022-08-30T18:32:06.205Z,7.00
2022-08-30T18:34:40.325Z,6.53
2022-08-30T18:37:11.529Z,6.63
2022-08-30T18:42:28.376Z,6.20
2022-08-30T18:44:55.956Z,6.27
2022-08-30T18:47:23.784Z,7.03
2022-08-30T18:49:53.175Z,6.30
2022-08-30T18:52:20.832Z,6.63
2022-08-30T18:54:52.962Z,6.60
2022-08-30T18:57:21.110Z,6.97
2022-08-30T18:59:49.702Z,6.40
2022-08-30T19:02:17.554Z,5.80
2022-08-30T19:04:45.667Z,5.83
2022-08-30T19:07:15.919Z,5.43
2022-08-30T19:09:45.207Z,5.73
2022-08-30T19:12:14.010Z,6.10
2022-08-30T19:14:41.918Z,4.90
2022-08-30T19:17:13.100Z,5.73
2022-08-30T19:19:47.329Z,6.10
2022-08-30T19:22:20.522Z,5.10
2022-08-30T19:24:49.811Z,7.50
2022-08-30T19:27:18.185Z,6.87
2022-08-30T19:29:53.638Z,5.10
2022-08-30T19:32:22.938Z,5.50
2022-08-30T19:34:50.895Z,5.37
2022-08-30T19:37:20.231Z,6.00
2022-08-30T19:39:48.063Z,7.00
2022-08-30T19:42:15.901Z,7.67
2022-08-30T19:44:44.009Z,6.07
2022-08-30T19:47:11.812Z,5.17
2022-08-30T19:49:39.603Z,5.63
2022-08-30T19:52:07.767Z,5.80
2022-08-30T19:54:36.671Z,5.60
2022-08-30T19:57:04.619Z,7.27
2022-08-30T19:59:32.471Z,8.00
2022-08-30T20:02:00.857Z,6.13
2022-08-30T20:04:29.977Z,9.30
2022-08-30T20:06:57.648Z,6.47
2022-08-30T20:09:25.629Z,7.27
2022-08-30T20:11:55.299Z,4.60
2022-08-30T20:14:26.928Z,8.40
2022-08-30T20:16:54.713Z,8.30
2022-08-30T20:19:27.695Z,8.80
2022-08-30T20:22:04.287Z,10.17
2022-08-30T20:24:23.153Z,4.00
2022-08-30T20:24:23.330Z,4.10
2022-08-30T20:24:26.175Z,3.77
2022-08-30T20:24:28.193Z,6.33
2022-08-30T20:27:10.468Z,7.10
2022-08-30T20:29:40.649Z,9.03
2022-08-30T20:32:08.501Z,7.67
2022-08-30T20:34:36.456Z,6.17
2022-08-30T20:37:04.528Z,6.00
2022-08-30T20:39:32.079Z,5.60
2022-08-30T20:41:59.639Z,7.23
2022-08-30T20:44:29.857Z,4.20
2022-08-30T20:46:58.110Z,4.40
2022-08-30T20:49:25.869Z,4.40
2022-08-30T20:51:54.485Z,4.27
2022-08-30T20:54:22.291Z,7.47
2022-08-30T20:56:50.047Z,3.60
2022-08-30T20:59:17.601Z,3.50
2022-08-30T21:01:47.000Z,3.50
2022-08-30T21:04:15.136Z,3.60
2022-08-30T21:06:42.732Z,3.53
2022-08-30T21:09:10.580Z,4.10
2022-08-30T21:11:39.169Z,3.23
2022-08-30T21:14:13.084Z,3.17
2022-08-30T21:16:40.886Z,3.30
2022-08-30T21:19:10.095Z,4.03
2022-08-30T21:21:37.959Z,7.33
2022-08-30T21:24:10.228Z,3.70
2022-08-30T21:26:38.764Z,5.00
2022-08-30T21:29:07.055Z,4.73
2022-08-30T21:31:35.234Z,4.90
2022-08-30T21:34:02.866Z,3.80
2022-08-30T21:36:46.507Z,2.40
2022-08-30T21:39:18.525Z,2.60
2022-08-30T21:41:48.158Z,2.47
2022-08-30T21:44:16.772Z,3.07
2022-08-30T21:46:44.794Z,2.67
2022-08-30T21:49:13.645Z,2.80
2022-08-30T21:51:43.363Z,2.97
2022-08-30T21:54:12.372Z,2.53
2022-08-30T21:56:41.443Z,2.33
2022-08-30T21:59:09.559Z,3.00
2022-08-30T22:01:37.888Z,2.67
2022-08-30T22:04:06.997Z,2.30
2022-08-30T22:06:36.045Z,5.53
2022-08-30T22:09:06.669Z,4.70
2022-08-30T22:11:35.278Z,4.30
2022-08-30T22:14:04.080Z,2.13
2022-08-30T22:16:32.064Z,3.83
2022-08-30T22:18:59.671Z,3.63
2022-08-30T22:21:29.729Z,2.70
2022-08-30T22:23:58.068Z,2.77
2022-08-30T22:26:27.639Z,2.10
2022-08-30T22:28:55.957Z,2.10
2022-08-30T22:31:24.334Z,2.60
2022-08-30T22:33:52.969Z,2.93
2022-08-30T22:36:21.986Z,2.57
2022-08-30T22:38:52.865Z,4.03
2022-08-30T22:41:25.529Z,3.90
2022-08-30T22:43:55.523Z,11.37
2022-08-30T22:46:34.312Z,7.37
2022-08-30T22:49:03.168Z,5.77
2022-08-30T22:51:31.162Z,3.10
2022-08-30T22:53:58.982Z,2.57
2022-08-30T22:56:27.401Z,3.23
2022-08-30T22:58:56.983Z,5.23
2022-08-30T23:01:26.699Z,3.40
2022-08-30T23:03:54.973Z,3.10
2022-08-30T23:06:29.769Z,5.10
2022-08-30T23:08:59.293Z,4.10
2022-08-30T23:11:30.692Z,5.10
2022-08-30T23:14:12.166Z,9.17
2022-08-30T23:16:47.373Z,8.33
2022-08-30T23:19:19.689Z,6.87
2022-08-30T23:21:48.701Z,8.13
2022-08-30T23:24:34.176Z,5.60
2022-08-30T23:27:19.654Z,5.80
2022-08-30T23:30:05.984Z,4.70
2022-08-30T23:32:51.738Z,3.50
2022-08-30T23:35:36.890Z,2.60
2022-08-30T23:38:23.505Z,7.70
2022-08-30T23:41:08.883Z,3.80
2022-08-30T23:43:55.018Z,4.20
2022-08-30T23:46:41.627Z,3.77
2022-08-30T23:49:27.258Z,4.20
2022-08-30T23:52:12.888Z,3.83
2022-08-30T23:54:58.729Z,3.57
2022-08-30T23:57:44.277Z,3.60
